Observations for BELFAST ALDERGROVE, United Kingdom (EGAA)

EGAA 231120Z 21010KT 9999 FEW012 14/12 Q1010
EGAA 231050Z 22013KT 9999 FEW033 14/12 Q1010
EGAA 231020Z 22011KT 9999 FEW014 SCT018 14/13 Q1009 
EGAA 230950Z 21011KT 9999 SCT014 14/13 Q1009
EGAA 230920Z 21009KT 9999 FEW006 SCT012 14/13 Q1009 
EGAA 230850Z 20009KT 9999 -RA SCT009 SCT014 13/13 Q1009 
EGAA 230820Z 19007KT 160V230 9999 SCT005 BKN008 BKN014 13/13 Q1009  
EGAA 230750Z 20009KT 9999 -DZ SCT007 BKN010 13/12 Q1008 
EGAA 230720Z 19008KT 160V220 9999 -DZ BKN005 BKN008 13/12 Q1008 
EGAA 230650Z 17008KT 130V200 9999 -DZ BKN005 BKN009 12/12 Q1009 
EGAA 230620Z 15009KT 9999 -DZ BKN005 BKN009 12/12 Q1009 
EGAA 230550Z 18007KT 140V210 9999 -DZ BKN006 12/12 Q1008
EGAA 230520Z 17007KT 140V210 9999 -DZ BKN008 12/12 Q1009
EGAA 230450Z 18008KT 9999 -DZ BKN008 12/11 Q1009
EGAA 230420Z 17009KT 9999 -DZ SCT007 BKN011 12/11 Q1008 
EGAA 230350Z 17010KT 9999 -DZ SCT008 BKN013 12/11 Q1008 
EGAA 230320Z 18009KT 9999 3000N -DZ BKN008 12/11 Q1009  
EGAA 230250Z 17009KT 9999 -DZ SCT007 BKN011 12/11 Q1009 
EGAA 230220Z 17008KT 9999 -RA BKN008 BKN013 11/11 Q1009 
EGAA 230150Z 17009KT 9999 -RA FEW009 SCT016 BKN023 11/10 Q1010  
EGAA 230120Z 16008KT 9999 -RA FEW010 SCT019 BKN026 11/10 Q1010  
EGAA 230050Z 16008KT 9999 -RA SCT011 BKN016 BKN022 11/10 Q1010  
EGAA 230020Z 17009KT 9999 FEW013 SCT021 BKN032 11/09 Q1011  
EGAA 222350Z 16008KT 130V200 9999 SCT043 10/09 Q1011
EGAA 222320Z 17008KT 130V210 9999 NSC 10/09 Q1011   
EGAA 222250Z 17008KT 9999 FEW041 10/09 Q1012
EGAA 222220Z 17006KT 130V200 9999 BKN024 10/09 Q1012
EGAA 222150Z 17007KT 9999 SCT029 10/08 Q1012
EGAA 222120Z 17006KT 9999 FEW020 10/08 Q1012
EGAA 222050Z 17006KT 140V210 9999 FEW026 10/08 Q1013
EGAA 222020Z 17005KT 9999 SCT022 BKN033 10/08 Q1013 
EGAA 221950Z 16004KT CAVOK 09/08 Q1013  
EGAA 221920Z 18004KT 9999 SCT042 10/08 Q1013
EGAA 221850Z 20004KT 9999 SCT019 SCT042 10/08 Q1013 
EGAA 221820Z 22006KT 9999 FEW026 BKN040 11/08 Q1013 
EGAA 221750Z 25007KT 9999 FEW019 BKN042 10/09 Q1013 
EGAA 221720Z 24006KT 9999 SCT026 BKN036 11/09 Q1013 
EGAA 221650Z 25007KT 9999 BKN040 11/08 Q1013
EGAA 221620Z 25009KT 9999 BKN044 11/08 Q1013
EGAA 221550Z 27011KT 9999 SCT035 BKN045 12/08 Q1013 
EGAA 221520Z 28008KT 9999 SCT030 BKN046 12/08 Q1013 
EGAA 221450Z 27010KT 9999 FEW020 SCT029 BKN041 11/07 Q1012  
EGAA 221420Z 27013KT 9999 SCT030 12/08 Q1012
EGAA 221350Z 27012KT 9999 SCT031 SCT036 12/07 Q1012 
EGAA 221320Z 28016KT 9999 SCT025 SCT034 11/06 Q1012 
EGAA 221250Z 28012KT 9999 SCT038 BKN047 11/05 Q1012 
EGAA 221220Z 30011KT 9999 SCT035 BKN047 11/06 Q1012 
EGAA 221150Z 28013KT 9999 SCT035 SCT044 10/06 Q1012 
EGAA 221120Z 27014KT 9999 FEW032 SCT038 BKN046 11/05 Q1012  
EGAA 221050Z 28014G24KT 9999 FEW034 BKN039 10/05 Q1011